Terminal Aerodrome Forecast
Issued by NWS Cleveland, OH

Home | Current Version | Previous Version | Text Only | Print | Product List | Glossary On
Versions: 1 2 3 4 5 6 7 8 9 10 11 12 13 14 15 16 17 18 19
000
FTUS41 KCLE 261600 AAA
TAFERI
TAF AMD
KERI 261618Z 2616/2712 06008KT P6SM OVC035
     FM261800 03008KT P6SM SCT025 OVC100
     FM270600 32008KT P6SM OVC025=

USA.gov is the U.S. government's official web portal to all federal, state and local government web resources and services.